Hercules Leader — 7JIF — position and weather

sailwx.info

Track history (hours):
 
Tides and Currents Weather Stations Pressure Air Temp Water Temp Dewpoint Dewpoint Depression Visibility Wind Speed Wind Dir Waves Ship Positions

Hercules Leader

Last reported at 2017-Dec-16 14:55 UTC. Time now 2017-Dec-16 15:10 UTC.
Position S 29°52' E 031°02'.

Length 199 m; draft 7.5 m.

Type: Cargo ship. MMSI: 432802956.

Date/timePositionNaut miles runAvg speedWind from/ knotsBaromVisibWave heightAir tempDewpointWater temp
2017-Dec-16 14:55S 29°52' E 031°02'0 0.0
2017-Dec-16 14:28S 29°52' E 031°02'0 0.0
2017-Dec-16 13:58S 29°52' E 031°02'0 0.0
2017-Dec-16 13:28S 29°52' E 031°02'0 0.0
2017-Dec-16 12:58S 29°52' E 031°02'0 0.0
2017-Dec-16 12:28S 29°52' E 031°02'0 0.0
2017-Dec-16 11:58S 29°52' E 031°02'0 0.0
2017-Dec-16 11:28S 29°52' E 031°02'0 0.0
2017-Dec-16 10:58S 29°52' E 031°02'0 0.0
2017-Dec-16 10:28S 29°52' E 031°02'0 0.0
2017-Dec-16 09:58S 29°52' E 031°02'0 0.0
2017-Dec-16 09:28S 29°52' E 031°02'0 0.0
2017-Dec-16 08:55S 29°52' E 031°02'0 0.0
2017-Dec-16 08:28S 29°52' E 031°02'0 0.0
2017-Dec-16 07:58S 29°52' E 031°02'0 0.0
2017-Dec-16 07:28S 29°52' E 031°02'0 0.0
2017-Dec-16 06:58S 29°52' E 031°02'0 0.0
2017-Dec-16 06:28S 29°52' E 031°02'0 0.0
2017-Dec-16 05:58S 29°52' E 031°02'0 0.0
2017-Dec-16 05:28S 29°52' E 031°02'0 0.0
2017-Dec-16 04:58S 29°52' E 031°02'0 0.0
2017-Dec-16 04:28S 29°52' E 031°02'0 0.0
2017-Dec-16 03:58S 29°52' E 031°02'0 0.0
2017-Dec-16 03:28S 29°52' E 031°02'0 0.0
2017-Dec-16 02:58S 29°52' E 031°02'0 0.0
2017-Dec-16 02:28S 29°52' E 031°02'0 0.0
2017-Dec-16 01:58S 29°52' E 031°02'0 0.0
2017-Dec-16 01:28S 29°52' E 031°02'0 0.0
2017-Dec-16 00:58S 29°52' E 031°02'0 0.0
2017-Dec-16 00:28S 29°52' E 031°02'0 0.0
2017-Dec-15 23:58S 29°52' E 031°02'0 0.0
2017-Dec-15 23:28S 29°52' E 031°02'0 0.0
2017-Dec-15 22:58S 29°52' E 031°02'0 0.0
2017-Dec-15 22:28S 29°52' E 031°02'0 0.0
2017-Dec-15 21:58S 29°52' E 031°02'0 0.0
2017-Dec-15 21:28S 29°52' E 031°02'0 0.0
2017-Dec-15 20:58S 29°52' E 031°02'0 0.0
2017-Dec-15 20:28S 29°52' E 031°02'0 0.0
2017-Dec-15 19:58S 29°52' E 031°02'0 0.0
2017-Dec-15 19:28S 29°52' E 031°02'0 0.0
2017-Dec-15 18:58S 29°52' E 031°02'0 0.0
2017-Dec-15 18:28S 29°52' E 031°02'0 0.0
2017-Dec-15 17:58S 29°52' E 031°02'0 0.0
2017-Dec-15 17:28S 29°52' E 031°02'0 0.0
2017-Dec-15 16:58S 29°52' E 031°02'0 0.0
2017-Dec-15 16:25S 29°52' E 031°02'0 0.0
2017-Dec-15 15:58S 29°52' E 031°02'0 0.0
2017-Dec-15 15:25S 29°52' E 031°02'0 0.0
2017-Dec-15 14:58S 29°52' E 031°02'0 0.0
2017-Dec-15 14:28S 29°52' E 031°02'0 0.0
2017-Dec-15 13:58S 29°52' E 031°02'0 0.0
2017-Dec-15 13:31S 29°52' E 031°02'0 0.0
2017-Dec-15 12:58S 29°52' E 031°02'0 0.0
2017-Dec-15 12:28S 29°52' E 031°02'0 0.0
2017-Dec-15 11:58S 29°52' E 031°02'0 0.0
2017-Dec-15 11:28S 29°52' E 031°02'0 0.0
2017-Dec-15 10:58S 29°52' E 031°02'0 0.0
2017-Dec-15 10:28S 29°52' E 031°02'0 0.0
2017-Dec-15 09:58S 29°52' E 031°02'0 0.0
2017-Dec-15 09:28S 29°52' E 031°02'0 0.0
2017-Dec-15 08:58S 29°52' E 031°02'0 0.0
2017-Dec-15 08:28S 29°52' E 031°02'0 0.0
2017-Dec-15 08:01S 29°52' E 031°02'0 0.0
2017-Dec-15 07:28S 29°52' E 031°02'0 0.1
2017-Dec-15 07:01S 29°52' E 031°02'1 2.9
2017-Dec-15 06:31S 29°52' E 031°04'4 7.6
2017-Dec-15 06:01S 29°49' E 031°06'0 0.4
2017-Dec-15 05:31S 29°49' E 031°06'1 2.7
2017-Dec-15 05:00S 29°48' E 031°08'3 5.6
2017-Dec-15 04:30S 29°50' E 031°10'611.5
2017-Dec-15 04:01S 29°56' E 031°11'2113.9
2017-Dec-15 02:30S 30°15' E 031°03'  
Track history (hours):
 
Tides and Currents Weather Stations Pressure Air Temp Water Temp Dewpoint Dewpoint Depression Visibility Wind Speed Wind Dir Waves Ship Positions

Hercules Leader

Last reported at 2017-Dec-16 14:55 UTC. Time now 2017-Dec-16 15:10 UTC.
Position S 29°52' E 031°02'.

Length 199 m; draft 7.5 m.

Type: Cargo ship. MMSI: 432802956.

Date/timePositionNaut miles runAvg speedWind from/ knotsBaromVisibWave heightAir tempDewpointWater temp
2017-Dec-16 14:55S 29°52' E 031°02'0 0.0
2017-Dec-16 14:28S 29°52' E 031°02'0 0.0
2017-Dec-16 13:58S 29°52' E 031°02'0 0.0
2017-Dec-16 13:28S 29°52' E 031°02'0 0.0
2017-Dec-16 12:58S 29°52' E 031°02'0 0.0
2017-Dec-16 12:28S 29°52' E 031°02'0 0.0
2017-Dec-16 11:58S 29°52' E 031°02'0 0.0
2017-Dec-16 11:28S 29°52' E 031°02'0 0.0
2017-Dec-16 10:58S 29°52' E 031°02'0 0.0
2017-Dec-16 10:28S 29°52' E 031°02'0 0.0
2017-Dec-16 09:58S 29°52' E 031°02'0 0.0
2017-Dec-16 09:28S 29°52' E 031°02'0 0.0
2017-Dec-16 08:55S 29°52' E 031°02'0 0.0
2017-Dec-16 08:28S 29°52' E 031°02'0 0.0
2017-Dec-16 07:58S 29°52' E 031°02'0 0.0
2017-Dec-16 07:28S 29°52' E 031°02'0 0.0
2017-Dec-16 06:58S 29°52' E 031°02'0 0.0
2017-Dec-16 06:28S 29°52' E 031°02'0 0.0
2017-Dec-16 05:58S 29°52' E 031°02'0 0.0
2017-Dec-16 05:28S 29°52' E 031°02'0 0.0
2017-Dec-16 04:58S 29°52' E 031°02'0 0.0
2017-Dec-16 04:28S 29°52' E 031°02'0 0.0
2017-Dec-16 03:58S 29°52' E 031°02'0 0.0
2017-Dec-16 03:28S 29°52' E 031°02'0 0.0
2017-Dec-16 02:58S 29°52' E 031°02'0 0.0
2017-Dec-16 02:28S 29°52' E 031°02'0 0.0
2017-Dec-16 01:58S 29°52' E 031°02'0 0.0
2017-Dec-16 01:28S 29°52' E 031°02'0 0.0
2017-Dec-16 00:58S 29°52' E 031°02'0 0.0
2017-Dec-16 00:28S 29°52' E 031°02'0 0.0
2017-Dec-15 23:58S 29°52' E 031°02'0 0.0
2017-Dec-15 23:28S 29°52' E 031°02'0 0.0
2017-Dec-15 22:58S 29°52' E 031°02'0 0.0
2017-Dec-15 22:28S 29°52' E 031°02'0 0.0
2017-Dec-15 21:58S 29°52' E 031°02'0 0.0
2017-Dec-15 21:28S 29°52' E 031°02'0 0.0
2017-Dec-15 20:58S 29°52' E 031°02'0 0.0
2017-Dec-15 20:28S 29°52' E 031°02'0 0.0
2017-Dec-15 19:58S 29°52' E 031°02'0 0.0
2017-Dec-15 19:28S 29°52' E 031°02'0 0.0
2017-Dec-15 18:58S 29°52' E 031°02'0 0.0
2017-Dec-15 18:28S 29°52' E 031°02'0 0.0
2017-Dec-15 17:58S 29°52' E 031°02'0 0.0
2017-Dec-15 17:28S 29°52' E 031°02'0 0.0
2017-Dec-15 16:58S 29°52' E 031°02'0 0.0
2017-Dec-15 16:25S 29°52' E 031°02'0 0.0
2017-Dec-15 15:58S 29°52' E 031°02'0 0.0
2017-Dec-15 15:25S 29°52' E 031°02'0 0.0
2017-Dec-15 14:58S 29°52' E 031°02'0 0.0
2017-Dec-15 14:28S 29°52' E 031°02'0 0.0
2017-Dec-15 13:58S 29°52' E 031°02'0 0.0
2017-Dec-15 13:31S 29°52' E 031°02'0 0.0
2017-Dec-15 12:58S 29°52' E 031°02'0 0.0
2017-Dec-15 12:28S 29°52' E 031°02'0 0.0
2017-Dec-15 11:58S 29°52' E 031°02'0 0.0
2017-Dec-15 11:28S 29°52' E 031°02'0 0.0
2017-Dec-15 10:58S 29°52' E 031°02'0 0.0
2017-Dec-15 10:28S 29°52' E 031°02'0 0.0
2017-Dec-15 09:58S 29°52' E 031°02'0 0.0
2017-Dec-15 09:28S 29°52' E 031°02'0 0.0
2017-Dec-15 08:58S 29°52' E 031°02'0 0.0
2017-Dec-15 08:28S 29°52' E 031°02'0 0.0
2017-Dec-15 08:01S 29°52' E 031°02'0 0.0
2017-Dec-15 07:28S 29°52' E 031°02'0 0.1
2017-Dec-15 07:01S 29°52' E 031°02'1 2.9
2017-Dec-15 06:31S 29°52' E 031°04'4 7.6
2017-Dec-15 06:01S 29°49' E 031°06'0 0.4
2017-Dec-15 05:31S 29°49' E 031°06'1 2.7
2017-Dec-15 05:00S 29°48' E 031°08'3 5.6
2017-Dec-15 04:30S 29°50' E 031°10'611.5
2017-Dec-15 04:01S 29°56' E 031°11'2113.9
2017-Dec-15 02:30S 30°15' E 031°03'  

Dump ship's entire track history